createdAt,value
2022-09-15T00:14:00.136Z,83.7
2022-09-15T00:33:59.991Z,84.0
2022-09-15T00:54:00.011Z,84.0
2022-09-15T01:13:59.973Z,84.1
2022-09-15T01:33:59.952Z,84.4
2022-09-15T01:53:59.866Z,83.0
2022-09-15T02:13:59.889Z,81.0
2022-09-15T02:33:59.810Z,79.4
2022-09-15T02:53:59.854Z,79.2
2022-09-15T03:13:59.850Z,80.1
2022-09-15T03:33:59.836Z,78.5
2022-09-15T03:53:59.792Z,78.3
2022-09-15T04:13:59.731Z,79.0
2022-09-15T04:33:59.817Z,77.9
2022-09-15T04:53:59.653Z,77.2
2022-09-15T05:13:59.676Z,77.5
2022-09-15T05:33:59.715Z,78.1
2022-09-15T05:53:59.614Z,75.9
2022-09-15T06:13:59.534Z,76.3
2022-09-15T06:33:59.553Z,76.3
2022-09-15T06:53:59.602Z,76.8
2022-09-15T07:13:59.497Z,76.0
2022-09-15T07:33:59.507Z,76.7
2022-09-15T07:53:59.430Z,77.2
2022-09-15T08:13:59.453Z,73.9
2022-09-15T08:33:59.422Z,73.7
2022-09-15T08:53:59.396Z,75.0
2022-09-15T09:13:59.312Z,74.0
2022-09-15T09:53:59.309Z,72.5
2022-09-15T10:13:59.331Z,67.8
2022-09-15T10:33:59.192Z,67.5
2022-09-15T10:53:59.221Z,65.4
2022-09-15T11:13:59.207Z,68.6
2022-09-15T11:33:59.217Z,69.1
2022-09-15T11:53:59.091Z,68.0
2022-09-15T12:13:59.203Z,69.7
2022-09-15T12:33:59.107Z,69.4
2022-09-15T12:53:59.005Z,72.4
2022-09-15T13:13:59.176Z,77.7
2022-09-15T13:33:58.954Z,72.3
2022-09-15T13:53:59.042Z,70.4
2022-09-15T14:13:58.909Z,70.5
2022-09-15T14:33:58.985Z,82.9
2022-09-15T14:53:58.860Z,88.6
2022-09-15T15:13:59.002Z,89.9
2022-09-15T15:33:58.892Z,90.6
2022-09-15T15:53:58.827Z,90.8
2022-09-15T16:13:58.836Z,90.8
2022-09-15T16:33:58.759Z,90.8
2022-09-15T16:53:58.784Z,91.1
2022-09-15T17:13:58.700Z,91.3
2022-09-15T17:33:58.723Z,91.4
2022-09-15T17:53:58.654Z,91.4
2022-09-15T18:13:58.671Z,91.2
2022-09-15T18:33:58.687Z,90.5
2022-09-15T18:53:58.608Z,89.1
2022-09-15T19:13:58.631Z,88.3
2022-09-15T19:33:58.583Z,87.2
2022-09-15T19:53:58.688Z,86.7
2022-09-15T20:33:58.512Z,87.2
2022-09-15T20:53:58.532Z,87.0
2022-09-15T21:13:58.454Z,86.9
2022-09-15T21:33:58.480Z,86.4
2022-09-15T21:53:58.396Z,86.7
2022-09-15T22:13:58.445Z,86.8
2022-09-15T22:33:58.335Z,86.7
2022-09-15T22:53:58.351Z,87.5
2022-09-15T23:13:58.378Z,87.6
2022-09-15T23:33:58.312Z,87.9
2022-09-15T23:53:58.310Z,87.9
